• Join FlightAware (Why Join?)
  • Login
  • US Flag 
06:59PM EDT


 

Airport Tracker/Info


-or-


 

Live Flight TrackerFlight Track Log ✈ DAL3682 ✈ 29-Jul-2013 ✈ KDTW - KCAE

Flight Track Log - Related Links

Times and Time Zones

All times are in EDT time to prevent confusion due to time zone crossing. See the DAL3682 flight status page for this flight to view local times or setup timezone preferences in your user account.

Time Position Orientation Groundspeed Altitude Reporting Facility
EDT Latitude Longitude Course Direction KTS MPH feet Rate Location/Type
03:45PM 42.1975 -83.3581 202° Southwest 164 189 1,400  Level Cleveland Center
03:46PM 42.1511 -83.3728 193° South 208 239 3,200 1,980 Climbing Cleveland Center
03:47PM 42.0883 -83.3897 191° South 257 296 5,300 2,160 Climbing Cleveland Center
03:48PM 41.8583 -83.2462 180° South  Level Estimated
03:48PM 42.0133 -83.3808 175° South 290 334 7,600  Level Cleveland Center
03:49PM 41.7402 -83.2108 180° South  Level Estimated
03:49PM 41.9303 -83.3744 177° South 311 358 9,800  Level Cleveland Center
03:50PM 41.6221 -83.1755 180° South  Level Estimated
03:50PM 41.8511 -83.3653 175° South 311 358 11,100  Level Cleveland Center
03:51PM 41.5041 -83.1403 202° Southwest  Level Estimated
03:51PM 41.7533 -83.3528 175° South 334 384 12,500  Level Cleveland Center
03:52PM 41.6411 -83.3394 175° South 354 407 13,900 1,320 Climbing Cleveland Center
03:53PM 41.5453 -83.3383 180° South 371 427 15,200 1,320 Climbing Cleveland Center
03:54PM 41.4378 -83.3836 198° South 371 427 16,600 1,260 Climbing Cleveland Center
03:55PM 41.3425 -83.4403 204° Southwest 371 427 17,800 960 Climbing Cleveland Center
03:58PM 41.1089 -83.5747 203° Southwest 388 447 20,100 840 Climbing Indianapolis Center
03:59PM 40.9900 -83.6458 204° Southwest 398 458 20,900 720 Climbing Indianapolis Center
04:00PM 40.8822 -83.7067 203° Southwest 411 473 21,600 660 Climbing Indianapolis Center
04:01PM 40.7750 -83.7661 203° Southwest 415 478 22,300 660 Climbing Indianapolis Center
04:02PM 40.6661 -83.8289 204° Southwest 421 484 23,000 660 Climbing Indianapolis Center
04:03PM 40.5578 -83.8908 203° Southwest 423 487 23,700 660 Climbing Indianapolis Center
04:04PM 40.4475 -83.9542 204° Southwest 427 491 24,400 720 Climbing Indianapolis Center
04:05PM 40.3189 -84.0256 203° Southwest 429 494 25,300 720 Climbing Indianapolis Center
04:06PM 40.1989 -84.0572 191° South 438 504 26,000 540 Climbing Indianapolis Center
04:07PM 40.0764 -84.0786 188° South 441 507 26,500 480 Climbing Indianapolis Center
04:08PM 39.9525 -84.0994 187° South 447 514 27,000 480 Climbing Indianapolis Center
04:09PM 39.8283 -84.1197 187° South 448 516 27,500 480 Climbing Indianapolis Center
04:10PM 39.7019 -84.1289 183° South 454 522 28,100 540 Climbing Indianapolis Center
04:11PM 39.5528 -84.1239 179° South 457 526 28,700 240 Climbing Indianapolis Center
04:12PM 39.4261 -84.0825 166° South 481 554 28,600 -300 Descending Indianapolis Center
04:13PM 39.2994 -84.0067 155° Southeast 501 577 28,100 -540 Descending Indianapolis Center
04:14PM 39.1667 -83.9306 156° South 516 594 27,600 -480 Descending Indianapolis Center
04:15PM 39.0328 -83.8525 156° South 525 604 27,200 -300 Descending Indianapolis Center
04:16PM 38.9017 -83.7772 156° South 517 595 27,000 -120 Descending Indianapolis Center
04:17PM 38.7547 -83.6928 156° South 495 570 27,000  Level Indianapolis Center
04:18PM 38.6289 -83.6206 156° South 491 565 27,000  Level Indianapolis Center
04:19PM 38.5072 -83.5489 155° Southeast 481 554 27,000  Level Indianapolis Center
04:20PM 38.3817 -83.4803 157° South 486 559 27,000  Level Indianapolis Center
04:21PM 38.2550 -83.4083 156° South 493 567 27,000  Level Indianapolis Center
04:22PM 38.1061 -83.3258 156° South 498 573 27,000  Level Indianapolis Center
04:23PM 37.9797 -83.2536 156° South 495 570 27,000  Level Indianapolis Center
04:24PM 37.8519 -83.1831 156° South 499 574 27,000  Level Indianapolis Center
04:25PM 37.7231 -83.1122 157° South 502 578 27,000  Level Indianapolis Center
04:27PM 37.5947 -83.0400 156° South 500 575 27,000  Level Indianapolis Center
04:28PM 37.4672 -82.9697 156° South 497 572 27,000  Level Indianapolis Center
04:29PM 37.3175 -82.8878 156° South 499 574 27,000  Level Indianapolis Center
04:30PM 37.1894 -82.8169 156° South 500 575 27,000  Level Indianapolis Center
04:31PM 37.0614 -82.7458 156° South 498 573 27,000  Level Indianapolis Center
04:32PM 36.9311 -82.6747 156° South 498 573 27,000  Level Indianapolis Center
04:33PM 36.8017 -82.6053 157° South 498 573 27,000  Level Indianapolis Center
04:34PM 36.6717 -82.5478 160° South 491 565 27,000  Level Indianapolis Center
04:35PM 36.5400 -82.4975 163° South 491 565 27,000  Level Indianapolis Center
04:36PM 36.3669 -82.4325 163° South 486 559 27,000  Level Atlanta Center
04:37PM 36.2389 -82.3836 163° South 486 559 27,000  Level Atlanta Center
04:38PM 36.1236 -82.3394 163° South 481 554 27,000  Level Atlanta Center
04:39PM 35.9936 -82.2883 162° South 481 554 27,000 -540 Level Atlanta Center
04:40PM 35.8658 -82.2425 164° South 476 548 26,000 -1,020 Descending Atlanta Center
04:41PM 35.7356 -82.1942 163° South 462 532 25,000 -540 Descending Atlanta Center
04:42PM 35.6181 -82.1483 162° South 450 518 25,000  Level Atlanta Center
04:43PM 35.4944 -82.1028 163° South 455 524 25,000  Level Atlanta Center
04:44PM 35.3744 -82.0444 158° South 462 532 25,000  Level Atlanta Center
04:45PM 35.2628 -81.9708 152° Southeast 457 526 25,000 -540 Level Atlanta Center
04:46PM 35.1508 -81.8972 152° Southeast 458 527 24,000 -540 Descending Atlanta Center
04:47PM 35.0453 -81.8292 152° Southeast 444 511 24,000  Level Atlanta Center
04:48PM 34.9525 -81.7681 152° Southeast 425 489 24,000  Level Atlanta Center
04:49PM 34.8489 -81.7053 154° Southeast 420 483 24,000 -480 Level Atlanta Center
04:50PM 34.7397 -81.6678 164° South 406 467 23,100 -1,320 Descending Atlanta Center
04:51PM 34.6136 -81.6233 164° South 414 476 21,400 -1,860 Descending Atlanta Center
04:53PM 34.3675 -81.5467 166° South 387 445 16,800 -2,100 Descending Jacksonville Center
04:54PM 34.2692 -81.5181 166° South 380 437 14,300 -2,520 Descending Jacksonville Center
04:55PM 34.1686 -81.4894 167° South 370 426 11,800 -2,100 Descending Jacksonville Center
04:56PM 34.0808 -81.4658 167° South 354 407 10,100 -2,040 Descending Jacksonville Center
04:57PM 34.0136 -81.4244 153° Southeast 320 368 7,800 -2,400 Descending Jacksonville Center
04:58PM 33.9428 -81.4331 186° South 262 302 5,300 -2,280 Descending Jacksonville Center
04:59PM 33.9017 -81.4839 226° Southwest 248 285 3,300 -1,440 Descending Jacksonville Center
05:00PM 33.9622 -81.5028 345° North 82 94 2,500 -420 Descending Jacksonville Center
05:01PM 34.0033 -81.4522 46° Northeast 114 131 2,500  Level Jacksonville Center
05:02PM 33.9964 -81.3772 96° East 147 169 2,500  Level Jacksonville Center